Saugatuck, Michigan
Current Conditions -  °F | °C
As of 2:53 PM on Thursday 30 Oct 2014 (Local Time) from KBIV Reporting Station
Overcast Overcast  
Wind Chill: 51°   Ceiling: 4200
Heat Index: 51°   Visibility: 10mi
Dew Point: 38°   Wind: 16mph
Humidity: 61%   Direction: 240°WSW
Pressure: 30.08"   Gusts: NA
Location:  42.66°N, 86.2°W
Report Text: KBIV 301853Z AUTO 24014KT 10SM SCT031 BKN042 OVC110 11/03 A3008 RMK AO2 SLP189 T01060033
Loading
Personal Weather Stations






























Interactive Weather Map
Tropical Storm Tracking
New forecast layout! Learn more

10-Day Weather Forecast

Advertisements
Track Severe Weather on mobile